TimeEDT,TemperatureF,Dew PointF,Humidity,Sea Level PressureIn,VisibilityMPH,Wind Direction,Wind SpeedMPH,Gust SpeedMPH,PrecipitationIn,Events,Conditions,WindDirDegrees,DateUTC
12:16 AM,24.8,17.8,75,29.69,-9999.0,Variable,4.6,19.6,N/A,,Unknown,0,2014-03-16 04:16:00
1:16 AM,21.4,15.3,77,29.70,-9999.0,SW,8.1,15.0,N/A,,Unknown,230,2014-03-16 05:16:00
2:16 AM,19.0,12.9,77,29.72,-9999.0,Variable,3.5,13.8,N/A,,Unknown,0,2014-03-16 06:16:00
3:16 AM,17.2,11.5,78,29.73,-9999.0,SW,6.9,16.1,0.00,,Unknown,230,2014-03-16 07:16:00
4:16 AM,14.7,9.0,78,29.74,-9999.0,Variable,3.5,11.5,0.00,,Unknown,0,2014-03-16 08:16:00
5:16 AM,12.7,7.2,78,29.77,-9999.0,Variable,5.8,18.4,N/A,,Unknown,0,2014-03-16 09:16:00
6:17 AM,10.2,4.5,78,29.79,-9999.0,Variable,4.6,16.1,N/A,,Unknown,0,2014-03-16 10:17:00
7:16 AM,8.6,2.3,76,29.83,-9999.0,Variable,4.6,-,N/A,,Unknown,0,2014-03-16 11:16:00
8:16 AM,8.8,0.5,69,29.86,-9999.0,Variable,6.9,19.6,0.00,,Unknown,0,2014-03-16 12:16:00
9:16 AM,9.5,-1.1,62,29.87,-9999.0,Variable,5.8,23.0,N/A,,Unknown,0,2014-03-16 13:16:00
10:16 AM,9.3,-2.4,59,29.90,-9999.0,SW,9.2,18.4,N/A,,Unknown,230,2014-03-16 14:16:00
11:16 AM,12.0,-2.4,53,29.90,-9999.0,Variable,5.8,16.1,N/A,,Unknown,0,2014-03-16 15:16:00
12:16 PM,13.5,-3.6,47,29.91,-9999.0,Variable,5.8,20.7,N/A,,Unknown,0,2014-03-16 16:16:00
1:16 PM,13.1,-3.3,48,29.91,-9999.0,SW,8.1,21.9,N/A,,Unknown,230,2014-03-16 17:16:00
2:16 PM,13.1,-5.1,44,29.93,-9999.0,SW,8.1,21.9,N/A,,Unknown,230,2014-03-16 18:16:00
3:16 PM,11.7,-6.9,43,29.96,-9999.0,SW,9.2,31.1,N/A,,Unknown,230,2014-03-16 19:16:00
4:16 PM,9.9,-8.1,44,29.97,-9999.0,SW,15.0,35.7,N/A,,Unknown,230,2014-03-16 20:16:00
5:16 PM,9.0,-7.6,47,29.99,-9999.0,WSW,11.5,27.6,N/A,,Unknown,240,2014-03-16 21:16:00
6:16 PM,7.3,-6.7,53,30.01,-9999.0,SW,10.4,31.1,N/A,,Unknown,230,2014-03-16 22:16:00
7:16 PM,6.1,-8.0,53,30.02,-9999.0,SW,11.5,31.1,0.00,,Unknown,230,2014-03-16 23:16:00
8:16 PM,4.6,-8.3,55,30.04,-9999.0,Variable,4.6,20.7,N/A,,Unknown,0,2014-03-17 00:16:00
9:16 PM,3.7,-9.8,54,30.05,-9999.0,Variable,4.6,18.4,N/A,,Unknown,0,2014-03-17 01:16:00
10:16 PM,3.6,-10.3,53,30.07,-9999.0,WSW,6.9,24.2,N/A,,Unknown,240,2014-03-17 02:16:00
11:16 PM,2.8,-10.1,55,30.08,-9999.0,WSW,10.4,24.2,0.01,,Unknown,240,2014-03-17 03:16:00